createdAt,value
2022-09-30T00:01:34.848Z,22.27
2022-09-30T00:04:03.441Z,23.77
2022-09-30T00:06:35.258Z,21.30
2022-09-30T00:09:03.774Z,20.83
2022-09-30T00:11:33.981Z,24.63
2022-09-30T00:14:02.314Z,21.15
2022-09-30T00:16:31.751Z,19.95
2022-09-30T00:19:00.794Z,21.70
2022-09-30T00:21:30.624Z,20.95
2022-09-30T00:24:00.365Z,20.77
2022-09-30T00:26:28.607Z,23.35
2022-09-30T00:28:59.077Z,23.73
2022-09-30T00:31:28.416Z,22.23
2022-09-30T00:34:09.135Z,22.83
2022-09-30T00:36:39.185Z,19.65
2022-09-30T00:39:09.412Z,19.55
2022-09-30T00:41:38.639Z,18.90
2022-09-30T00:44:44.517Z,19.10
2022-09-30T00:47:28.706Z,20.20
2022-09-30T00:49:57.234Z,20.08
2022-09-30T00:52:25.609Z,19.30
2022-09-30T00:54:56.070Z,20.48
2022-09-30T00:57:24.369Z,18.45
2022-09-30T00:59:52.594Z,20.30
2022-09-30T01:02:20.918Z,18.80
2022-09-30T01:04:49.230Z,20.23
2022-09-30T01:07:20.949Z,20.13
2022-09-30T01:09:49.314Z,17.77
2022-09-30T01:12:21.566Z,18.23
2022-09-30T01:14:53.319Z,20.42
2022-09-30T01:17:24.606Z,20.55
2022-09-30T01:20:13.123Z,18.88
2022-09-30T01:22:42.885Z,17.88
2022-09-30T01:25:20.166Z,18.20
2022-09-30T01:27:57.170Z,16.25
2022-09-30T01:30:34.600Z,17.58
2022-09-30T01:33:13.510Z,18.58
2022-09-30T01:35:51.262Z,16.50
2022-09-30T01:38:24.959Z,16.75
2022-09-30T01:40:56.903Z,17.35
2022-09-30T01:43:29.883Z,19.65
2022-09-30T01:46:00.654Z,16.23
2022-09-30T01:48:32.694Z,15.88
2022-09-30T01:51:01.873Z,15.82
2022-09-30T01:53:33.124Z,14.98
2022-09-30T01:56:03.053Z,14.95
2022-09-30T01:58:38.581Z,17.27
2022-09-30T02:01:10.232Z,17.08
2022-09-30T02:03:39.770Z,17.17
2022-09-30T02:06:09.918Z,14.52
2022-09-30T02:08:41.751Z,15.10
2022-09-30T02:11:12.238Z,15.93
2022-09-30T02:13:42.996Z,14.25
2022-09-30T02:16:14.895Z,13.80
2022-09-30T02:18:44.375Z,14.38
2022-09-30T02:21:12.853Z,16.17
2022-09-30T02:23:42.707Z,14.73
2022-09-30T02:26:13.083Z,13.77
2022-09-30T02:28:43.457Z,16.63
2022-09-30T02:31:13.387Z,14.05
2022-09-30T02:33:43.662Z,14.88
2022-09-30T02:36:14.146Z,14.20
2022-09-30T02:38:43.490Z,19.02
2022-09-30T02:41:13.243Z,13.60
2022-09-30T02:43:42.234Z,13.98
2022-09-30T02:46:16.111Z,13.65
2022-09-30T02:48:45.566Z,14.00
2022-09-30T02:51:17.080Z,14.98
2022-09-30T02:53:47.558Z,12.70
2022-09-30T02:56:20.952Z,12.88
2022-09-30T02:58:49.261Z,12.85
2022-09-30T03:01:18.969Z,15.02
2022-09-30T03:03:48.195Z,12.07
2022-09-30T03:06:16.444Z,13.73
2022-09-30T03:08:45.037Z,12.07
2022-09-30T03:11:15.334Z,12.05
2022-09-30T03:14:07.619Z,11.55
2022-09-30T03:16:45.909Z,12.73
2022-09-30T03:19:23.175Z,13.02
2022-09-30T03:22:01.919Z,13.10
2022-09-30T03:24:43.277Z,12.45
2022-09-30T03:27:15.756Z,12.20
2022-09-30T03:29:48.130Z,12.80
2022-09-30T03:32:26.566Z,11.95
2022-09-30T03:35:02.418Z,11.93
2022-09-30T03:37:34.063Z,11.43
2022-09-30T03:40:04.060Z,10.77
2022-09-30T03:42:36.272Z,10.73
2022-09-30T03:45:06.542Z,12.43
2022-09-30T03:47:37.330Z,10.65
2022-09-30T03:50:08.638Z,11.80
2022-09-30T03:52:36.938Z,10.60
2022-09-30T03:55:06.561Z,10.70
2022-09-30T03:57:34.838Z,11.73
2022-09-30T04:00:03.666Z,9.90
2022-09-30T04:02:33.352Z,12.05
2022-09-30T04:05:03.028Z,10.93
2022-09-30T04:07:31.349Z,13.13
2022-09-30T04:09:59.602Z,10.30
2022-09-30T04:12:27.922Z,13.88
2022-09-30T04:14:56.186Z,9.52
2022-09-30T04:17:24.596Z,11.65
2022-09-30T04:19:52.874Z,9.65
2022-09-30T04:22:26.276Z,9.80
2022-09-30T04:24:54.885Z,8.98
2022-09-30T04:27:23.401Z,8.90
2022-09-30T04:29:51.850Z,9.60
2022-09-30T04:32:20.085Z,9.27
2022-09-30T04:34:48.622Z,9.02
2022-09-30T04:37:16.885Z,9.35
2022-09-30T04:39:46.616Z,10.00
2022-09-30T04:42:14.962Z,10.02
2022-09-30T04:44:43.353Z,9.15
2022-09-30T04:47:11.644Z,10.93
2022-09-30T04:49:40.082Z,12.80
2022-09-30T04:52:08.486Z,13.43
2022-09-30T04:54:36.758Z,12.50
2022-09-30T04:57:07.300Z,11.57
2022-09-30T04:59:35.720Z,14.13
2022-09-30T05:02:04.005Z,13.68
2022-09-30T05:04:33.628Z,15.07
2022-09-30T05:07:03.845Z,17.58
2022-09-30T05:09:32.311Z,12.38
2022-09-30T05:12:02.422Z,14.32
2022-09-30T05:14:32.436Z,14.43
2022-09-30T05:17:01.086Z,14.82
2022-09-30T05:19:29.942Z,16.95
2022-09-30T05:21:58.277Z,16.73
2022-09-30T05:24:26.698Z,20.98
2022-09-30T05:26:54.953Z,20.80
2022-09-30T05:29:23.349Z,22.40
2022-09-30T05:31:53.135Z,22.05
2022-09-30T05:34:21.563Z,20.27
2022-09-30T05:36:49.981Z,21.17
2022-09-30T05:39:18.411Z,21.38
2022-09-30T05:41:46.600Z,20.58
2022-09-30T05:44:15.472Z,23.90
2022-09-30T05:46:44.452Z,28.52
2022-09-30T05:49:14.562Z,24.50
2022-09-30T05:51:42.952Z,21.10
2022-09-30T05:54:11.230Z,23.35
2022-09-30T05:56:39.547Z,20.55
2022-09-30T05:59:07.813Z,20.80
2022-09-30T06:01:36.139Z,20.55
2022-09-30T06:04:04.513Z,17.48
2022-09-30T06:06:34.398Z,19.17
2022-09-30T06:09:02.711Z,19.35
2022-09-30T06:11:31.921Z,17.73
2022-09-30T06:14:00.280Z,16.90
2022-09-30T06:16:28.668Z,20.15
2022-09-30T06:18:56.903Z,16.52
2022-09-30T06:21:25.197Z,18.77
2022-09-30T06:23:54.863Z,18.17
2022-09-30T06:26:23.146Z,16.63
2022-09-30T06:28:51.926Z,17.15
2022-09-30T06:31:20.373Z,19.13
2022-09-30T06:33:48.625Z,18.23
2022-09-30T06:36:17.374Z,17.00
2022-09-30T06:38:45.703Z,16.30
2022-09-30T06:41:15.762Z,16.08
2022-09-30T06:43:55.658Z,15.95
2022-09-30T06:46:31.745Z,14.30
2022-09-30T06:49:11.219Z,16.10
2022-09-30T06:51:42.310Z,15.85
2022-09-30T06:54:11.053Z,15.65
2022-09-30T06:56:40.793Z,15.20
2022-09-30T06:59:09.131Z,15.55
2022-09-30T07:01:37.391Z,15.60
2022-09-30T07:04:09.760Z,17.33
2022-09-30T07:06:39.221Z,17.25
2022-09-30T07:09:07.931Z,22.08
2022-09-30T07:11:36.765Z,35.78
2022-09-30T07:14:06.502Z,39.75
2022-09-30T07:16:35.334Z,34.25
2022-09-30T07:19:03.730Z,35.00
2022-09-30T07:21:32.339Z,39.50
2022-09-30T07:24:02.049Z,32.67
2022-09-30T07:26:31.273Z,31.90
2022-09-30T07:29:00.272Z,35.78
2022-09-30T07:31:34.884Z,35.80
2022-09-30T07:34:04.223Z,34.03
2022-09-30T07:36:34.032Z,39.00
2022-09-30T07:39:06.012Z,35.83
2022-09-30T07:41:35.916Z,35.50
2022-09-30T07:44:06.715Z,34.67
2022-09-30T07:46:39.398Z,35.40
2022-09-30T07:49:09.261Z,34.53
2022-09-30T07:51:39.235Z,34.42
2022-09-30T07:54:09.065Z,33.10
2022-09-30T07:57:08.044Z,32.92
2022-09-30T07:59:27.396Z,32.78
2022-09-30T08:01:57.591Z,32.70
2022-09-30T08:04:26.289Z,27.20
2022-09-30T08:06:55.899Z,33.40
2022-09-30T08:09:25.399Z,44.15
2022-09-30T08:11:53.884Z,55.80
2022-09-30T08:14:23.138Z,46.85
2022-09-30T08:16:51.636Z,48.58
2022-09-30T08:19:22.283Z,49.70
2022-09-30T08:21:50.711Z,48.47
2022-09-30T08:24:19.038Z,50.55
2022-09-30T08:26:47.517Z,49.65
2022-09-30T08:29:24.927Z,49.00
2022-09-30T08:31:58.564Z,42.25
2022-09-30T08:34:33.913Z,48.08
2022-09-30T08:37:06.318Z,53.22
2022-09-30T08:39:37.396Z,59.80
2022-09-30T08:42:45.315Z,51.70
2022-09-30T08:45:20.385Z,58.58
2022-09-30T08:47:51.333Z,57.40
2022-09-30T08:50:24.936Z,58.25
2022-09-30T08:52:55.222Z,57.65
2022-09-30T08:55:24.827Z,58.50
2022-09-30T08:57:53.509Z,58.28
2022-09-30T09:00:22.643Z,59.50
2022-09-30T09:02:51.961Z,57.70
2022-09-30T09:05:28.598Z,58.78
2022-09-30T09:08:02.789Z,56.55
2022-09-30T09:10:35.761Z,54.47
2022-09-30T09:13:07.910Z,42.10
2022-09-30T09:15:47.326Z,39.83
2022-09-30T09:18:36.316Z,36.15
2022-09-30T09:21:14.954Z,41.13
2022-09-30T09:23:43.216Z,29.60
2022-09-30T09:26:12.151Z,31.05
2022-09-30T09:28:42.060Z,26.80
2022-09-30T09:31:14.499Z,28.92
2022-09-30T09:33:42.946Z,34.60
2022-09-30T09:36:19.811Z,33.22
2022-09-30T09:38:58.598Z,32.60
2022-09-30T09:41:32.660Z,30.35
2022-09-30T09:44:03.178Z,30.67
2022-09-30T09:46:32.622Z,31.85
2022-09-30T09:49:41.785Z,30.05
2022-09-30T09:52:24.559Z,27.98
2022-09-30T09:54:57.006Z,27.25
2022-09-30T09:57:27.921Z,28.23
2022-09-30T09:59:57.449Z,30.88
2022-09-30T10:02:26.767Z,27.17
2022-09-30T10:05:00.301Z,26.42
2022-09-30T10:07:30.866Z,27.02
2022-09-30T10:10:12.515Z,27.92
2022-09-30T10:12:41.129Z,25.98
2022-09-30T10:15:20.410Z,27.00
2022-09-30T10:17:53.235Z,24.90
2022-09-30T10:20:26.059Z,25.25
2022-09-30T10:23:09.570Z,25.35
2022-09-30T10:25:37.950Z,25.58
2022-09-30T10:28:21.648Z,24.85
2022-09-30T10:30:51.007Z,25.20
2022-09-30T10:33:25.496Z,25.52
2022-09-30T10:36:00.608Z,24.65
2022-09-30T10:38:32.248Z,22.95
2022-09-30T10:41:00.651Z,22.83
2022-09-30T10:43:31.517Z,23.65
2022-09-30T10:46:24.742Z,24.23
2022-09-30T10:48:52.158Z,22.95
2022-09-30T10:51:25.084Z,21.35
2022-09-30T10:53:55.166Z,21.00
2022-09-30T10:56:45.065Z,23.45
2022-09-30T10:59:29.807Z,22.30
2022-09-30T11:02:00.061Z,22.25
2022-09-30T11:04:32.283Z,20.23
2022-09-30T11:07:04.863Z,21.83
2022-09-30T11:09:37.943Z,23.98
2022-09-30T11:12:11.526Z,21.33
2022-09-30T11:14:43.459Z,20.55
2022-09-30T11:17:18.041Z,22.27
2022-09-30T11:19:51.273Z,21.38
2022-09-30T11:22:29.607Z,20.58
2022-09-30T11:24:59.507Z,19.48
2022-09-30T11:27:34.175Z,20.08
2022-09-30T11:30:09.930Z,19.50
2022-09-30T11:32:54.430Z,20.02
2022-09-30T11:35:29.885Z,21.83
2022-09-30T11:38:06.022Z,20.73
2022-09-30T11:40:39.486Z,20.65
2022-09-30T11:43:15.579Z,18.00
2022-09-30T11:45:58.664Z,18.52
2022-09-30T11:48:35.499Z,19.25
2022-09-30T11:51:09.122Z,18.70
2022-09-30T11:53:43.642Z,18.95
2022-09-30T11:56:20.962Z,18.15
2022-09-30T11:58:50.449Z,18.30
2022-09-30T12:01:22.526Z,31.10
2022-09-30T12:03:56.274Z,19.33
2022-09-30T12:06:28.237Z,19.58
2022-09-30T12:08:58.229Z,17.75
2022-09-30T12:11:34.145Z,17.73
2022-09-30T12:14:04.909Z,15.82
2022-09-30T12:16:33.946Z,16.05
2022-09-30T12:19:05.802Z,15.52
2022-09-30T12:21:37.517Z,15.57
2022-09-30T12:24:08.477Z,14.65
2022-09-30T12:26:38.391Z,15.70
2022-09-30T12:29:25.714Z,15.75
2022-09-30T12:32:10.024Z,14.77
2022-09-30T12:34:46.149Z,14.70
2022-09-30T12:37:22.670Z,14.57
2022-09-30T12:40:06.802Z,14.00
2022-09-30T12:43:30.353Z,15.65
2022-09-30T12:46:15.118Z,15.60
2022-09-30T12:48:45.227Z,14.27
2022-09-30T12:51:13.972Z,14.77
2022-09-30T12:53:42.174Z,14.63
2022-09-30T12:56:11.735Z,13.18
2022-09-30T12:58:44.158Z,13.60
2022-09-30T13:01:17.027Z,13.23
2022-09-30T13:03:47.830Z,12.38
2022-09-30T13:06:16.321Z,13.32
2022-09-30T13:08:47.395Z,13.20
2022-09-30T13:11:40.504Z,12.23
2022-09-30T13:14:26.200Z,11.85
2022-09-30T13:17:21.947Z,11.80
2022-09-30T13:19:51.948Z,11.85
2022-09-30T13:22:57.510Z,11.45
2022-09-30T13:25:25.711Z,11.07
2022-09-30T13:27:55.652Z,10.90
2022-09-30T13:30:34.590Z,10.75
2022-09-30T13:33:34.235Z,10.38
2022-09-30T13:36:10.342Z,10.10
2022-09-30T13:38:40.602Z,9.48
2022-09-30T13:41:20.633Z,11.43
2022-09-30T13:43:53.653Z,9.20
2022-09-30T13:46:26.362Z,10.20
2022-09-30T13:48:58.778Z,10.95
2022-09-30T13:51:28.777Z,10.25
2022-09-30T13:53:59.787Z,13.30
2022-09-30T13:56:29.466Z,12.57
2022-09-30T13:59:21.906Z,8.68
2022-09-30T14:02:04.003Z,10.82
2022-09-30T14:05:01.088Z,9.68
2022-09-30T14:07:40.150Z,9.05
2022-09-30T14:10:25.528Z,9.10
2022-09-30T14:13:03.165Z,10.10
2022-09-30T14:15:57.481Z,9.35
2022-09-30T14:18:54.706Z,8.85
2022-09-30T14:21:39.826Z,8.98
2022-09-30T14:24:12.382Z,9.75
2022-09-30T14:26:53.023Z,8.90
2022-09-30T14:29:25.013Z,11.63
2022-09-30T14:31:53.368Z,11.20
2022-09-30T14:34:22.175Z,10.50
2022-09-30T14:36:52.030Z,8.90
2022-09-30T14:39:21.442Z,9.02
2022-09-30T14:41:51.903Z,9.13
2022-09-30T14:44:20.718Z,5.13
2022-09-30T14:46:49.460Z,29.73
2022-09-30T14:49:19.072Z,50.60
2022-09-30T14:51:48.644Z,26.63
2022-09-30T14:54:19.755Z,16.58
2022-09-30T14:56:48.359Z,17.95
2022-09-30T14:59:22.501Z,14.82
2022-09-30T15:01:51.755Z,14.70
2022-09-30T15:04:21.301Z,13.82
2022-09-30T15:06:50.942Z,14.75
2022-09-30T15:09:31.587Z,15.55
2022-09-30T15:12:05.087Z,13.88
2022-09-30T15:14:34.174Z,15.82
2022-09-30T15:17:06.064Z,13.50
2022-09-30T15:19:35.439Z,12.68
2022-09-30T15:22:04.643Z,12.20
2022-09-30T15:24:34.510Z,12.88
2022-09-30T15:27:02.956Z,10.80
2022-09-30T15:29:31.311Z,12.18
2022-09-30T15:32:02.382Z,17.35
2022-09-30T15:34:30.927Z,38.92
2022-09-30T15:37:04.665Z,31.15
2022-09-30T15:39:48.979Z,23.73
2022-09-30T15:42:30.433Z,19.88
2022-09-30T15:44:59.437Z,25.02
2022-09-30T15:47:27.851Z,27.77
2022-09-30T15:49:56.094Z,25.13
2022-09-30T15:52:36.587Z,25.45
2022-09-30T15:55:37.050Z,25.63
2022-09-30T15:58:05.310Z,23.88
2022-09-30T16:00:43.044Z,23.50
2022-09-30T16:03:32.691Z,22.70
2022-09-30T16:06:09.283Z,23.50
2022-09-30T16:08:44.338Z,21.45
2022-09-30T16:11:20.625Z,21.58
2022-09-30T16:13:49.107Z,20.63
2022-09-30T16:16:21.418Z,21.75
2022-09-30T16:18:49.987Z,20.58
2022-09-30T16:21:44.389Z,19.25
2022-09-30T16:24:48.798Z,19.65
2022-09-30T16:27:39.943Z,20.07
2022-09-30T16:30:08.701Z,18.83
2022-09-30T16:32:41.080Z,20.20
2022-09-30T16:35:16.573Z,19.30
2022-09-30T16:37:45.359Z,20.20
2022-09-30T16:40:31.562Z,17.15
2022-09-30T16:43:04.363Z,16.75
2022-09-30T16:45:35.221Z,18.13
2022-09-30T16:48:03.789Z,18.42
2022-09-30T16:50:35.105Z,18.40
2022-09-30T16:53:03.277Z,18.52
2022-09-30T16:55:31.634Z,15.45
2022-09-30T16:58:04.762Z,18.48
2022-09-30T17:00:33.042Z,15.23
2022-09-30T17:03:01.264Z,18.40
2022-09-30T17:05:29.530Z,19.75
2022-09-30T17:07:59.271Z,17.67
2022-09-30T17:10:29.119Z,19.55
2022-09-30T17:12:57.651Z,16.35
2022-09-30T17:15:28.199Z,14.82
2022-09-30T17:17:56.626Z,16.77
2022-09-30T17:20:24.914Z,13.82
2022-09-30T17:22:53.234Z,13.32
2022-09-30T17:25:21.695Z,16.77
2022-09-30T17:27:50.701Z,14.00
2022-09-30T17:30:19.376Z,13.75
2022-09-30T17:32:49.114Z,12.15
2022-09-30T17:35:17.521Z,13.10
2022-09-30T17:37:46.653Z,11.95
2022-09-30T17:40:33.134Z,12.57
2022-09-30T17:43:11.657Z,20.80
2022-09-30T17:45:41.350Z,18.52
2022-09-30T17:48:11.939Z,17.45
2022-09-30T17:50:40.889Z,22.13
2022-09-30T17:53:09.428Z,18.23
2022-09-30T17:55:37.673Z,21.10
2022-09-30T17:58:06.153Z,18.98
2022-09-30T18:00:34.351Z,21.58
2022-09-30T18:03:03.474Z,20.95
2022-09-30T18:05:33.180Z,16.67
2022-09-30T18:08:01.712Z,20.80
2022-09-30T18:10:30.259Z,16.95
2022-09-30T18:12:59.956Z,16.15
2022-09-30T18:15:28.604Z,16.98
2022-09-30T18:17:57.783Z,23.30
2022-09-30T18:20:26.248Z,21.63
2022-09-30T18:22:56.949Z,18.65
2022-09-30T18:25:26.411Z,18.15
2022-09-30T18:27:56.339Z,21.33
2022-09-30T18:30:25.434Z,16.60
2022-09-30T18:32:54.533Z,18.23
2022-09-30T18:35:24.673Z,17.23
2022-09-30T18:37:55.464Z,16.70
2022-09-30T18:40:26.269Z,16.98
2022-09-30T18:42:58.690Z,14.85
2022-09-30T18:45:27.663Z,15.98
2022-09-30T18:47:57.035Z,18.25
2022-09-30T18:50:26.858Z,15.48
2022-09-30T18:52:57.068Z,17.10
2022-09-30T18:55:25.967Z,15.00
2022-09-30T18:57:55.685Z,19.38
2022-09-30T19:00:24.078Z,19.77
2022-09-30T19:02:53.437Z,20.15
2022-09-30T19:05:22.408Z,24.33
2022-09-30T19:07:50.761Z,21.63
2022-09-30T19:10:20.499Z,23.92
2022-09-30T19:12:50.090Z,27.38
2022-09-30T19:15:18.818Z,26.15
2022-09-30T19:17:47.103Z,25.83
2022-09-30T19:20:16.733Z,28.60
2022-09-30T19:22:45.039Z,27.63
2022-09-30T19:25:13.265Z,26.88
2022-09-30T19:27:43.430Z,24.73
2022-09-30T19:30:12.949Z,26.95
2022-09-30T19:32:41.291Z,23.17
2022-09-30T19:35:12.088Z,22.77
2022-09-30T19:37:55.795Z,20.50
2022-09-30T19:40:28.390Z,24.52
2022-09-30T19:42:58.105Z,24.65
2022-09-30T19:45:27.417Z,26.38
2022-09-30T19:47:56.897Z,26.70
2022-09-30T19:50:25.237Z,25.52
2022-09-30T19:52:57.259Z,24.35
2022-09-30T19:55:26.634Z,24.00
2022-09-30T19:57:54.930Z,24.15
2022-09-30T20:00:24.714Z,25.23
2022-09-30T20:02:52.893Z,25.02
2022-09-30T20:05:21.680Z,23.05
2022-09-30T20:07:51.373Z,24.58
2022-09-30T20:10:20.134Z,21.15
2022-09-30T20:12:48.489Z,24.08
2022-09-30T20:15:34.249Z,24.27
2022-09-30T20:18:04.035Z,23.52
2022-09-30T20:20:42.867Z,23.52
2022-09-30T20:23:11.081Z,25.15
2022-09-30T20:25:39.555Z,24.02
2022-09-30T20:28:07.994Z,23.63
2022-09-30T20:30:39.550Z,25.23
2022-09-30T20:33:09.277Z,22.77
2022-09-30T20:35:37.814Z,22.48
2022-09-30T20:38:06.925Z,25.95
2022-09-30T20:40:35.355Z,23.48
2022-09-30T20:43:04.378Z,23.52
2022-09-30T20:45:32.681Z,21.35
2022-09-30T20:48:01.114Z,23.10
2022-09-30T20:50:36.550Z,20.73
2022-09-30T20:53:06.905Z,23.00
2022-09-30T20:55:36.663Z,20.48
2022-09-30T20:58:05.681Z,25.38
2022-09-30T21:00:34.650Z,24.05
2022-09-30T21:03:03.056Z,19.83
2022-09-30T21:05:32.800Z,24.17
2022-09-30T21:08:02.349Z,25.40
2022-09-30T21:10:31.814Z,23.30
2022-09-30T21:13:02.239Z,19.92
2022-09-30T21:15:31.344Z,20.83
2022-09-30T21:17:59.818Z,22.35
2022-09-30T21:20:28.051Z,21.20
2022-09-30T21:22:57.756Z,21.17
2022-09-30T21:25:26.066Z,23.20
2022-09-30T21:27:54.553Z,18.85
2022-09-30T21:30:23.599Z,22.20
2022-09-30T21:32:51.914Z,23.38
2022-09-30T21:35:21.174Z,19.25
2022-09-30T21:37:50.005Z,20.73
2022-09-30T21:40:20.322Z,20.20
2022-09-30T21:42:48.827Z,20.60
2022-09-30T21:45:18.799Z,18.02
2022-09-30T21:47:47.111Z,20.83
2022-09-30T21:50:15.419Z,19.42
2022-09-30T21:52:45.794Z,20.17
2022-09-30T21:55:15.108Z,18.95
2022-09-30T21:57:46.027Z,17.65
2022-09-30T22:00:14.512Z,19.40
2022-09-30T22:02:42.748Z,18.23
2022-09-30T22:05:11.039Z,19.20
2022-09-30T22:07:39.371Z,17.98
2022-09-30T22:10:09.126Z,18.80
2022-09-30T22:12:38.410Z,17.15
2022-09-30T22:15:09.437Z,17.98
2022-09-30T22:17:37.874Z,16.95
2022-09-30T22:20:07.046Z,17.35
2022-09-30T22:22:35.709Z,17.30
2022-09-30T22:25:03.978Z,15.90
2022-09-30T22:27:32.481Z,16.73
2022-09-30T22:30:00.778Z,17.58
2022-09-30T22:32:30.414Z,17.58
2022-09-30T22:35:15.850Z,17.40
2022-09-30T22:38:01.688Z,19.35
2022-09-30T22:40:29.990Z,16.55
2022-09-30T22:42:58.162Z,16.50
2022-09-30T22:45:26.839Z,15.57
2022-09-30T22:47:57.053Z,17.05
2022-09-30T22:50:28.817Z,18.25
2022-09-30T22:52:58.162Z,19.67
2022-09-30T22:55:26.455Z,17.35
2022-09-30T22:57:54.687Z,15.82
2022-09-30T23:00:22.923Z,16.65
2022-09-30T23:02:52.998Z,15.23
2022-09-30T23:05:22.786Z,17.75
2022-09-30T23:07:51.206Z,16.23
2022-09-30T23:10:19.495Z,16.90
2022-09-30T23:12:47.818Z,16.10
2022-09-30T23:15:16.238Z,15.35
2022-09-30T23:17:44.457Z,15.80
2022-09-30T23:20:12.929Z,16.42
2022-09-30T23:22:42.879Z,16.95
2022-09-30T23:25:11.488Z,14.75
2022-09-30T23:27:39.759Z,19.75
2022-09-30T23:30:08.824Z,16.98
2022-09-30T23:32:37.970Z,17.17
2022-09-30T23:35:06.857Z,17.40
2022-09-30T23:37:35.297Z,15.65
2022-09-30T23:40:05.367Z,15.82
2022-09-30T23:42:33.802Z,15.93
2022-09-30T23:45:01.988Z,13.68
2022-09-30T23:47:30.435Z,14.50
2022-09-30T23:49:58.664Z,14.20
2022-09-30T23:52:26.918Z,13.88
2022-09-30T23:54:55.522Z,14.85
2022-09-30T23:57:25.306Z,14.55
2022-09-30T23:59:53.618Z,14.73
